Time;durP1;ratioP1;P1;durP2;ratioP2;P2;SDS_P1;SDS_P2;PMS_P1;PMS_P2;Temp;Humidity;BMP_temperature;BMP_pressure;BME280_temperature;BME280_humidity;BME280_pressure;Samples;Min_cycle;Max_cycle;Signal;HPM_P1;HPM_P2
2024/04/23 00:01:21;;;;;;;7.80;3.67;;;4.90;70.30;;;;;;5356551;26;20083;-65
2024/04/23 00:03:47;;;;;;;6.20;3.80;;;4.90;70.50;;;;;;5359610;26;20000;-64
2024/04/23 00:06:13;;;;;;;7.90;4.50;;;4.90;70.70;;;;;;5357682;26;20012;-65
2024/04/23 00:08:38;;;;;;;6.88;4.45;;;4.80;70.80;;;;;;5362927;26;20458;-64
2024/04/23 00:11:04;;;;;;;4.82;3.63;;;4.80;71.00;;;;;;5362668;26;20434;-66
2024/04/23 00:13:29;;;;;;;5.38;3.92;;;4.80;71.00;;;;;;5361371;26;20439;-65
2024/04/23 00:15:55;;;;;;;6.72;4.13;;;4.80;71.20;;;;;;5361431;26;20359;-64
2024/04/23 00:18:20;;;;;;;5.90;3.85;;;4.70;71.30;;;;;;5362060;26;20000;-63
2024/04/23 00:20:46;;;;;;;5.45;3.80;;;4.70;71.40;;;;;;5368455;26;20008;-64
2024/04/23 00:23:12;;;;;;;4.75;3.72;;;4.70;71.60;;;;;;5363639;26;20012;-65
2024/04/23 00:25:38;;;;;;;5.35;3.75;;;4.70;71.70;;;;;;5357642;26;20001;-64
2024/04/23 00:28:04;;;;;;;5.00;3.75;;;4.60;71.80;;;;;;5367253;26;20010;-65
2024/04/23 00:30:30;;;;;;;5.60;4.00;;;4.70;72.00;;;;;;5373079;26;20016;-64
2024/04/23 00:32:55;;;;;;;5.60;4.03;;;4.60;72.00;;;;;;5361660;26;20037;-65
2024/04/23 00:35:21;;;;;;;6.00;3.95;;;4.60;72.10;;;;;;5360968;26;20413;-64
2024/04/23 00:37:46;;;;;;;7.82;4.22;;;4.60;72.30;;;;;;5362105;26;20495;-64
2024/04/23 00:40:12;;;;;;;5.28;3.90;;;4.60;72.40;;;;;;5363334;26;20743;-66
2024/04/23 00:42:37;;;;;;;5.90;3.90;;;4.60;72.50;;;;;;5359230;26;20033;-65
2024/04/23 00:45:06;;;;;;;4.65;3.70;;;4.60;72.50;;;;;;5366964;26;20028;-64
2024/04/23 00:47:31;;;;;;;5.28;4.28;;;4.60;72.50;;;;;;5369962;26;20011;-65
2024/04/23 00:49:57;;;;;;;5.40;4.15;;;4.60;72.60;;;;;;5360124;26;20005;-66
2024/04/23 00:52:23;;;;;;;4.72;3.63;;;4.50;72.60;;;;;;5360077;26;20007;-66
2024/04/23 00:54:49;;;;;;;6.53;3.95;;;4.50;72.80;;;;;;5362895;26;20016;-65
2024/04/23 00:57:16;;;;;;;6.35;4.07;;;4.50;73.00;;;;;;5358944;26;20032;-64
2024/04/23 00:59:41;;;;;;;5.82;3.90;;;4.40;73.10;;;;;;5365517;26;20004;-61
2024/04/23 01:02:07;;;;;;;5.53;3.85;;;4.40;73.20;;;;;;5365308;26;20500;-64
2024/04/23 01:04:32;;;;;;;6.03;4.13;;;4.40;73.30;;;;;;5366826;26;20413;-64
2024/04/23 01:06:58;;;;;;;4.68;4.00;;;4.40;73.30;;;;;;5362233;26;20032;-64
2024/04/23 01:09:24;;;;;;;6.38;4.28;;;4.40;73.50;;;;;;5376558;26;20042;-63
2024/04/23 01:11:50;;;;;;;6.03;4.38;;;4.30;73.60;;;;;;5372093;26;20401;-62
2024/04/23 01:14:15;;;;;;;6.00;4.50;;;4.30;73.70;;;;;;5360515;26;20011;-63
2024/04/23 01:16:44;;;;;;;5.32;4.03;;;4.30;73.80;;;;;;5372894;26;20004;-64
2024/04/23 01:19:42;;;;;;;5.70;4.75;;;4.30;74.00;;;;;;5374177;26;20001;-65
2024/04/23 01:22:31;;;;;;;5.22;4.32;;;4.40;74.10;;;;;;5364091;26;20007;-64
2024/04/23 01:25:07;;;;;;;7.00;4.53;;;4.40;74.10;;;;;;5359015;26;20073;-64
2024/04/23 01:27:33;;;;;;;6.70;4.80;;;4.30;74.10;;;;;;5363635;26;20012;-65
2024/04/23 01:29:59;;;;;;;6.93;4.85;;;4.30;74.20;;;;;;5374451;26;20023;-65
2024/04/23 01:32:27;;;;;;;5.55;4.43;;;4.30;74.40;;;;;;5362341;26;20086;-66
2024/04/23 01:34:54;;;;;;;6.15;4.63;;;4.30;74.40;;;;;;5368618;26;20036;-64
2024/04/23 01:37:21;;;;;;;5.50;4.18;;;4.30;74.40;;;;;;5363482;26;20020;-64
2024/04/23 01:39:46;;;;;;;6.53;4.90;;;4.30;74.50;;;;;;5367044;26;19997;-64
2024/04/23 01:42:13;;;;;;;6.72;4.75;;;4.30;74.60;;;;;;5375191;26;20066;-63
2024/04/23 01:44:40;;;;;;;7.13;5.15;;;4.20;74.70;;;;;;5369953;26;20008;-64
2024/04/23 01:47:05;;;;;;;7.07;4.70;;;4.20;74.80;;;;;;5365297;26;20000;-65
2024/04/23 01:49:31;;;;;;;7.75;5.07;;;4.20;74.90;;;;;;5364765;26;20091;-63
2024/04/23 01:51:57;;;;;;;5.95;4.93;;;4.20;75.00;;;;;;5359535;26;20377;-63
2024/04/23 01:54:23;;;;;;;6.25;4.95;;;4.10;75.00;;;;;;5362776;26;20212;-64
2024/04/23 01:56:49;;;;;;;6.15;4.93;;;4.00;75.10;;;;;;5358069;26;20008;-65
2024/04/23 01:59:15;;;;;;;7.63;5.20;;;4.00;75.40;;;;;;5372212;26;20542;-65
2024/04/23 02:01:44;;;;;;;7.07;4.80;;;4.00;75.50;;;;;;5367108;26;20016;-62
2024/04/23 02:04:12;;;;;;;7.78;5.55;;;4.00;75.60;;;;;;5362207;26;20324;-64
2024/04/23 02:06:37;;;;;;;8.60;5.15;;;4.00;76.00;;;;;;5370701;26;20075;-65
2024/04/23 02:09:03;;;;;;;7.57;5.80;;;4.00;76.00;;;;;;5372087;26;20570;-65
2024/04/23 02:11:30;;;;;;;6.72;5.18;;;4.00;76.10;;;;;;5359420;26;20000;-63
2024/04/23 02:13:55;;;;;;;8.10;5.70;;;4.00;76.10;;;;;;5365612;26;20004;-64
2024/04/23 02:16:21;;;;;;;8.10;5.57;;;4.00;76.20;;;;;;5369668;26;20018;-63
2024/04/23 02:18:46;;;;;;;8.80;5.72;;;3.90;76.20;;;;;;5357527;26;20476;-65
2024/04/23 02:21:12;;;;;;;7.40;5.35;;;3.90;76.40;;;;;;5361281;26;20717;-65
2024/04/23 02:23:37;;;;;;;7.60;5.63;;;3.90;76.50;;;;;;5362844;26;20054;-66
2024/04/23 02:26:03;;;;;;;8.15;5.30;;;3.90;76.50;;;;;;5367040;26;20154;-65
2024/04/23 02:28:29;;;;;;;9.05;5.65;;;4.00;76.60;;;;;;5368473;26;20081;-64
2024/04/23 02:30:54;;;;;;;7.30;5.72;;;4.00;76.60;;;;;;5361931;26;20379;-66
2024/04/23 02:33:20;;;;;;;7.72;5.30;;;4.00;76.70;;;;;;5369421;26;20000;-65
2024/04/23 02:35:45;;;;;;;9.25;6.15;;;4.00;76.70;;;;;;5363028;26;20383;-65
2024/04/23 02:38:11;;;;;;;7.85;5.63;;;4.00;76.70;;;;;;5360702;26;20005;-64
2024/04/23 02:40:36;;;;;;;7.35;5.63;;;4.00;76.60;;;;;;5349271;26;20399;-65
2024/04/23 02:43:02;;;;;;;7.70;5.88;;;4.00;76.60;;;;;;5359309;26;20412;-65
2024/04/23 02:45:27;;;;;;;6.97;5.60;;;4.00;76.60;;;;;;5368928;26;20011;-66
2024/04/23 02:47:53;;;;;;;7.50;5.53;;;4.00;76.70;;;;;;5355019;26;20007;-64
2024/04/23 02:50:18;;;;;;;7.50;5.80;;;4.00;76.70;;;;;;5365991;26;19992;-64
2024/04/23 02:52:44;;;;;;;7.18;5.75;;;4.00;77.40;;;;;;5351628;26;20010;-65
2024/04/23 02:55:09;;;;;;;8.27;6.20;;;4.00;76.80;;;;;;5367120;26;19992;-64
2024/04/23 02:57:38;;;;;;;9.90;5.82;;;3.90;76.80;;;;;;5363640;26;20008;-65
2024/04/23 03:00:04;;;;;;;8.00;6.03;;;3.90;76.90;;;;;;5356208;26;20655;-64
2024/04/23 03:02:30;;;;;;;8.75;5.90;;;3.90;77.00;;;;;;5362651;26;20001;-64
2024/04/23 03:04:55;;;;;;;8.73;6.70;;;3.90;77.30;;;;;;5364123;26;20020;-64
2024/04/23 03:07:21;;;;;;;7.47;6.35;;;3.80;77.30;;;;;;5381090;26;19996;-66
2024/04/23 03:09:46;;;;;;;9.60;6.55;;;3.80;77.40;;;;;;5364928;26;20041;-65
2024/04/23 03:12:12;;;;;;;8.82;6.47;;;3.80;77.70;;;;;;5359416;26;20754;-63
2024/04/23 03:14:37;;;;;;;10.65;6.82;;;3.70;77.90;;;;;;5361669;26;20009;-65
2024/04/23 03:17:03;;;;;;;9.25;6.45;;;3.60;78.00;;;;;;5353532;26;20355;-65
2024/04/23 03:19:28;;;;;;;8.77;6.22;;;3.60;78.20;;;;;;5370805;26;20407;-65
2024/04/23 03:21:55;;;;;;;8.07;6.30;;;3.50;78.20;;;;;;5359379;26;20474;-65
2024/04/23 03:24:22;;;;;;;9.18;6.38;;;3.60;78.40;;;;;;5352330;26;20024;-65
2024/04/23 03:26:47;;;;;;;7.80;6.50;;;3.60;78.40;;;;;;5353121;26;20502;-65
2024/04/23 03:29:13;;;;;;;8.32;6.50;;;3.60;78.40;;;;;;5362598;26;19992;-65
2024/04/23 03:31:39;;;;;;;8.02;6.32;;;3.50;78.50;;;;;;5353677;26;19992;-65
2024/04/23 03:34:04;;;;;;;8.30;6.82;;;3.50;78.50;;;;;;5361659;26;20001;-65
2024/04/23 03:36:30;;;;;;;8.75;6.97;;;3.50;78.70;;;;;;5359592;26;20009;-65
2024/04/23 03:38:56;;;;;;;8.02;6.22;;;3.40;78.80;;;;;;5373956;26;19996;-65
2024/04/23 03:41:21;;;;;;;8.85;6.80;;;3.40;78.90;;;;;;5359150;26;19996;-65
2024/04/23 03:43:47;;;;;;;8.77;6.78;;;3.40;79.00;;;;;;5368894;26;20073;-64
2024/04/23 03:46:12;;;;;;;9.32;6.90;;;3.40;79.20;;;;;;5350453;26;20008;-65
2024/04/23 03:48:38;;;;;;;9.77;6.75;;;3.40;79.40;;;;;;5365230;26;20003;-65
2024/04/23 03:51:04;;;;;;;10.32;7.78;;;3.40;79.50;;;;;;5375464;26;20007;-64
2024/04/23 03:53:31;;;;;;;8.32;7.10;;;3.40;79.50;;;;;;5379479;26;19996;-65
2024/04/23 03:55:56;;;;;;;9.70;7.22;;;3.40;79.60;;;;;;5381453;26;20031;-64
2024/04/23 03:58:22;;;;;;;9.15;7.28;;;3.40;79.60;;;;;;5380868;26;19996;-65
2024/04/23 04:00:47;;;;;;;9.60;7.63;;;3.40;79.60;;;;;;5367598;26;20015;-65
2024/04/23 04:06:06;;;;;;;12.02;7.97;;;3.50;79.80;;;;;;5375155;26;20081;-65
2024/04/23 04:08:39;;;;;;;10.38;7.90;;;3.50;79.80;;;;;;5353511;26;20008;-65
2024/04/23 04:11:05;;;;;;;9.15;7.68;;;3.50;79.80;;;;;;5378419;26;20023;-64
2024/04/23 04:13:32;;;;;;;11.30;7.97;;;3.50;79.80;;;;;;5384394;26;20401;-65
2024/04/23 04:15:58;;;;;;;10.90;8.50;;;3.60;79.80;;;;;;5367762;26;20082;-65
2024/04/23 04:18:24;;;;;;;10.23;7.78;;;3.60;79.90;;;;;;5385870;26;20012;-64
2024/04/23 04:20:49;;;;;;;10.00;7.63;;;3.50;80.00;;;;;;5373623;26;20590;-63
2024/04/23 04:23:15;;;;;;;9.43;7.45;;;3.50;80.10;;;;;;5367803;26;19996;-66
2024/04/23 04:25:40;;;;;;;10.07;7.80;;;3.50;80.10;;;;;;5375616;26;20011;-65
2024/04/23 04:28:06;;;;;;;10.00;8.15;;;3.60;80.20;;;;;;5364306;26;20066;-66
2024/04/23 04:30:31;;;;;;;10.00;8.18;;;3.60;80.10;;;;;;5388978;26;20011;-64
2024/04/23 04:32:57;;;;;;;10.38;7.93;;;3.60;80.10;;;;;;5366478;26;19996;-60
2024/04/23 04:35:22;;;;;;;11.18;8.68;;;3.70;80.10;;;;;;5382270;26;20105;-64
2024/04/23 04:37:48;;;;;;;12.73;9.07;;;3.70;80.10;;;;;;5370584;26;20357;-63
2024/04/23 04:40:14;;;;;;;10.25;8.07;;;3.70;80.10;;;;;;5359782;26;20000;-62
2024/04/23 04:42:39;;;;;;;11.05;8.60;;;3.70;80.00;;;;;;5373978;26;20379;-63
2024/04/23 04:45:05;;;;;;;10.55;8.55;;;3.70;80.10;;;;;;5366873;26;20004;-63
2024/04/23 04:47:31;;;;;;;11.52;8.50;;;3.60;80.20;;;;;;5359697;26;20354;-64
2024/04/23 04:49:56;;;;;;;10.90;8.45;;;3.60;80.30;;;;;;5359736;26;20024;-64
2024/04/23 04:52:22;;;;;;;10.85;8.35;;;3.60;80.40;;;;;;5358080;26;20000;-63
2024/04/23 04:54:47;;;;;;;11.20;8.20;;;3.60;80.50;;;;;;5362000;26;20004;-63
2024/04/23 04:57:13;;;;;;;12.00;8.20;;;3.60;80.60;;;;;;5360929;26;20004;-63
2024/04/23 04:59:38;;;;;;;10.20;8.02;;;3.60;80.50;;;;;;5346914;26;20005;-65
2024/04/23 05:02:04;;;;;;;10.05;8.13;;;3.70;80.60;;;;;;5360661;26;20012;-64
2024/04/23 05:04:29;;;;;;;9.98;8.23;;;3.70;80.60;;;;;;5384676;26;20332;-62
2024/04/23 05:06:55;;;;;;;10.85;8.50;;;3.70;80.50;;;;;;5372084;26;20019;-64
2024/04/23 05:09:21;;;;;;;11.23;8.80;;;3.70;80.50;;;;;;5359333;26;20001;-63
2024/04/23 05:11:46;;;;;;;11.93;8.60;;;3.80;80.60;;;;;;5360365;26;20315;-63
2024/04/23 05:14:12;;;;;;;10.43;8.43;;;3.80;80.60;;;;;;5367514;26;20456;-63
2024/04/23 05:16:39;;;;;;;11.93;8.57;;;3.90;80.60;;;;;;5369674;26;20012;-64
2024/04/23 05:19:05;;;;;;;13.90;9.30;;;3.90;80.50;;;;;;5363468;26;20024;-64
2024/04/23 05:21:30;;;;;;;12.27;9.10;;;4.00;80.60;;;;;;5356361;26;20008;-63
2024/04/23 05:23:56;;;;;;;12.88;9.45;;;4.00;80.50;;;;;;5365807;26;20070;-65
2024/04/23 05:26:23;;;;;;;12.65;9.98;;;4.10;80.40;;;;;;5361504;26;20005;-61
2024/04/23 05:28:49;;;;;;;11.40;9.23;;;4.10;80.40;;;;;;5354133;26;20001;-64
2024/04/23 05:33:59;;;;;;;12.52;9.95;;;5.80;80.30;;;;;;5369218;26;20466;-62
2024/04/23 05:36:26;;;;;;;10.70;8.65;;;7.30;76.60;;;;;;5360125;26;20000;-65
2024/04/23 05:38:52;;;;;;;11.25;8.73;;;8.50;73.40;;;;;;5371603;26;20011;-62
2024/04/23 05:41:18;;;;;;;10.35;7.72;;;9.50;70.70;;;;;;5373407;26;20477;-61
2024/04/23 05:43:43;;;;;;;9.95;8.77;;;10.50;68.20;;;;;;5361288;26;20004;-63
2024/04/23 05:46:09;;;;;;;11.00;8.32;;;11.30;65.90;;;;;;5365871;26;20000;-64
2024/04/23 05:49:12;;;;;;;9.30;7.63;;;12.10;63.90;;;;;;5356787;26;20079;-60
2024/04/23 05:52:16;;;;;;;10.20;7.85;;;12.90;61.40;;;;;;5355589;26;20004;-66
2024/04/23 05:55:19;;;;;;;8.43;7.35;;;13.20;59.90;;;;;;5368125;26;20000;-62
2024/04/23 05:57:46;;;;;;;8.52;7.00;;;12.80;59.50;;;;;;5356585;26;20036;-64
2024/04/23 06:00:11;;;;;;;7.47;6.47;;;12.50;60.00;;;;;;5366444;26;19997;-63
2024/04/23 06:02:37;;;;;;;8.38;7.40;;;12.00;60.50;;;;;;5355950;26;20104;-62
2024/04/23 06:05:02;;;;;;;9.07;7.72;;;11.90;61.00;;;;;;5371898;26;20012;-60
2024/04/23 06:07:28;;;;;;;9.30;7.55;;;12.70;60.40;;;;;;5358815;26;20001;-63
2024/04/23 06:09:53;;;;;;;8.35;7.00;;;13.70;58.60;;;;;;5364254;26;20000;-63
2024/04/23 06:12:19;;;;;;;8.25;7.35;;;14.60;56.80;;;;;;5360038;26;19997;-64
2024/04/23 06:14:44;;;;;;;10.85;8.00;;;15.10;55.40;;;;;;5360429;26;20007;-63
2024/04/23 06:17:21;;;;;;;9.82;7.72;;;15.70;54.00;;;;;;5365856;26;20004;-61
2024/04/23 06:19:50;;;;;;;9.20;7.13;;;16.10;52.70;;;;;;5368651;26;20020;-64
2024/04/23 06:22:23;;;;;;;9.85;7.05;;;16.50;51.90;;;;;;5365790;26;20028;-62
2024/04/23 06:24:50;;;;;;;8.45;6.72;;;17.00;50.80;;;;;;5356358;26;20343;-62
2024/04/23 06:27:23;;;;;;;9.27;7.43;;;17.40;50.20;;;;;;5358393;26;20006;-63
2024/04/23 06:29:53;;;;;;;7.72;6.50;;;17.50;49.40;;;;;;5367753;26;20627;-62
2024/04/23 06:32:20;;;;;;;8.70;7.03;;;17.70;49.00;;;;;;5361425;26;20393;-62
2024/04/23 06:34:46;;;;;;;7.68;6.88;;;18.00;48.40;;;;;;5371829;26;19996;-62
2024/04/23 06:37:12;;;;;;;7.65;6.80;;;18.20;47.70;;;;;;5362987;26;20447;-62
2024/04/23 06:39:42;;;;;;;8.27;6.93;;;18.30;47.30;;;;;;5362557;26;20011;-63
2024/04/23 06:42:09;;;;;;;8.63;7.07;;;18.50;46.90;;;;;;5366899;26;20421;-61
2024/04/23 06:44:35;;;;;;;8.63;6.65;;;18.50;46.60;;;;;;5369351;26;19996;-61
2024/04/23 06:47:00;;;;;;;9.65;7.38;;;18.70;46.40;;;;;;5373082;26;20011;-64
2024/04/23 06:49:26;;;;;;;7.57;6.78;;;18.80;46.00;;;;;;5362396;26;20022;-64
2024/04/23 06:51:51;;;;;;;7.80;6.55;;;19.10;45.80;;;;;;5372388;26;20108;-66
2024/04/23 06:54:18;;;;;;;7.72;6.70;;;19.30;45.60;;;;;;5359547;26;20003;-61
2024/04/23 06:56:43;;;;;;;8.02;6.57;;;19.70;45.30;;;;;;5360862;26;20016;-63
2024/04/23 06:59:09;;;;;;;8.40;6.93;;;19.90;44.80;;;;;;5368473;26;20443;-62
2024/04/23 07:01:35;;;;;;;8.55;6.47;;;19.90;44.70;;;;;;5365289;26;20139;-62
2024/04/23 07:04:01;;;;;;;7.65;6.85;;;20.00;44.50;;;;;;5364769;26;20032;-65
2024/04/23 07:06:27;;;;;;;8.40;7.13;;;19.70;44.20;;;;;;5366797;26;20077;-63
2024/04/23 07:08:53;;;;;;;7.78;6.63;;;19.80;44.00;;;;;;5357606;26;20008;-67
2024/04/23 07:11:19;;;;;;;8.02;7.22;;;20.00;43.70;;;;;;5369239;26;20494;-63
2024/04/23 07:13:46;;;;;;;8.43;7.43;;;20.30;43.50;;;;;;5359712;26;20675;-62
2024/04/23 07:16:14;;;;;;;8.38;7.00;;;19.80;42.90;;;;;;5356348;26;20007;-63
2024/04/23 07:18:41;;;;;;;7.55;6.75;;;19.80;43.30;;;;;;5371446;26;20012;-62
2024/04/23 07:21:07;;;;;;;6.95;6.25;;;20.20;43.20;;;;;;5372998;26;20073;-62
2024/04/23 07:23:33;;;;;;;13.27;7.13;;;20.20;42.90;;;;;;5366300;26;20039;-62
2024/04/23 07:25:58;;;;;;;6.72;5.90;;;20.00;43.00;;;;;;5357273;26;19996;-63
2024/04/23 07:28:24;;;;;;;6.70;5.85;;;20.30;42.70;;;;;;5361685;26;20014;-63
2024/04/23 07:30:50;;;;;;;7.80;6.20;;;20.70;42.40;;;;;;5354628;26;20051;-62
2024/04/23 07:33:16;;;;;;;6.78;6.07;;;21.00;42.00;;;;;;5368897;26;20025;-63
2024/04/23 07:35:43;;;;;;;6.13;5.47;;;21.20;41.40;;;;;;5360192;26;20012;-63
2024/04/23 07:38:13;;;;;;;7.35;6.28;;;21.30;41.10;;;;;;5368490;26;20015;-66
2024/04/23 07:40:41;;;;;;;6.93;6.20;;;21.50;40.60;;;;;;5360711;26;20008;-65
2024/04/23 07:43:06;;;;;;;6.70;6.00;;;21.60;40.30;;;;;;5370402;26;20004;-65
2024/04/23 07:45:35;;;;;;;5.97;5.38;;;21.50;39.70;;;;;;5358083;26;20719;-65
2024/04/23 07:48:02;;;;;;;7.03;5.93;;;21.20;40.20;;;;;;5362375;26;20008;-63
2024/04/23 07:50:27;;;;;;;7.22;5.72;;;21.30;40.50;;;;;;5355146;26;20008;-64
2024/04/23 07:52:53;;;;;;;7.28;6.20;;;21.60;39.70;;;;;;5368181;26;19997;-63
2024/04/23 07:55:19;;;;;;;7.35;5.82;;;21.00;39.50;;;;;;5368973;26;20008;-62
2024/04/23 07:57:45;;;;;;;6.43;5.53;;;21.10;39.80;;;;;;5354398;26;19996;-62
2024/04/23 08:00:12;;;;;;;6.57;5.03;;;21.10;39.80;;;;;;5374551;26;20018;-62
2024/04/23 08:02:38;;;;;;;6.72;5.20;;;20.80;40.00;;;;;;5367300;26;20372;-60
2024/04/23 08:05:04;;;;;;;6.95;5.32;;;20.70;40.40;;;;;;5360258;26;20000;-62
2024/04/23 08:07:30;;;;;;;6.38;5.03;;;20.40;40.70;;;;;;5360347;26;20008;-63
2024/04/23 08:09:56;;;;;;;6.32;5.32;;;20.10;40.70;;;;;;5351265;26;20000;-66
2024/04/23 08:12:21;;;;;;;6.40;5.15;;;19.70;40.90;;;;;;5360495;26;20478;-62
2024/04/23 08:14:47;;;;;;;6.30;5.05;;;19.30;41.60;;;;;;5364253;26;20008;-63
2024/04/23 08:17:13;;;;;;;6.43;4.85;;;18.70;41.60;;;;;;5352652;26;20007;-65
2024/04/23 08:19:38;;;;;;;6.30;5.05;;;17.70;42.20;;;;;;5361644;26;20023;-63
2024/04/23 08:22:04;;;;;;;5.72;5.00;;;17.10;43.60;;;;;;5356634;26;20000;-60
2024/04/23 08:24:29;;;;;;;6.68;5.38;;;16.70;44.40;;;;;;5372434;26;20000;-63
2024/04/23 08:26:55;;;;;;;5.88;4.78;;;16.40;45.20;;;;;;5359239;26;20344;-63
2024/04/23 08:29:21;;;;;;;6.80;4.90;;;16.20;45.90;;;;;;5360433;26;19997;-64
2024/04/23 08:31:47;;;;;;;6.47;5.40;;;15.90;46.00;;;;;;5359291;26;20000;-64
2024/04/23 08:34:12;;;;;;;6.90;5.50;;;15.20;44.70;;;;;;5357907;26;20102;-63
2024/04/23 08:36:38;;;;;;;5.93;4.80;;;14.40;46.10;;;;;;5366062;26;20082;-63
2024/04/23 08:39:04;;;;;;;5.45;4.82;;;13.90;46.80;;;;;;5371856;26;20463;-63
2024/04/23 08:41:38;;;;;;;6.15;5.13;;;13.50;47.60;;;;;;5364206;26;20010;-64
2024/04/23 08:44:08;;;;;;;6.85;5.93;;;13.20;48.20;;;;;;5394409;26;20547;-62
2024/04/23 08:46:34;;;;;;;7.38;5.57;;;12.90;48.60;;;;;;5395484;26;20076;-63
2024/04/23 08:49:04;;;;;;;6.90;5.90;;;12.70;49.20;;;;;;5372158;26;20011;-62
2024/04/23 08:51:32;;;;;;;6.75;5.53;;;12.60;49.30;;;;;;5368904;26;19993;-63
2024/04/23 08:54:01;;;;;;;9.23;5.95;;;12.50;49.60;;;;;;5364322;26;19996;-63
2024/04/23 08:56:32;;;;;;;6.72;5.55;;;12.40;49.80;;;;;;5373029;26;20011;-64
2024/04/23 08:59:01;;;;;;;6.75;5.35;;;12.30;49.70;;;;;;5372717;26;20607;-64
2024/04/23 09:01:31;;;;;;;5.70;5.10;;;12.30;49.90;;;;;;5379803;26;20004;-62
2024/04/23 09:03:58;;;;;;;6.25;5.32;;;12.50;49.40;;;;;;5373351;26;20000;-67
2024/04/23 09:06:25;;;;;;;6.05;4.80;;;12.60;49.40;;;;;;5363771;26;20009;-63
2024/04/23 09:08:53;;;;;;;6.15;4.95;;;12.80;49.40;;;;;;5374161;26;20009;-63
2024/04/23 09:11:18;;;;;;;6.28;5.55;;;12.80;49.50;;;;;;5363707;26;19996;-63
2024/04/23 09:13:44;;;;;;;8.65;5.18;;;12.90;49.60;;;;;;5373023;26;20019;-63
2024/04/23 09:16:10;;;;;;;8.18;5.72;;;12.80;49.80;;;;;;5355577;26;20001;-64
2024/04/23 09:18:35;;;;;;;8.25;5.40;;;12.70;49.30;;;;;;5363857;26;20000;-62
2024/04/23 09:21:02;;;;;;;5.28;4.60;;;12.50;49.30;;;;;;5359321;26;20004;-64
2024/04/23 09:23:28;;;;;;;6.93;5.75;;;12.60;49.70;;;;;;5368486;26;20004;-62
2024/04/23 09:25:58;;;;;;;7.55;5.45;;;12.40;49.50;;;;;;5373237;26;20004;-62
2024/04/23 09:28:25;;;;;;;6.63;4.95;;;12.30;49.50;;;;;;5350116;26;20016;-62
2024/04/23 09:30:51;;;;;;;5.57;4.82;;;12.30;50.00;;;;;;5375195;26;20015;-63
2024/04/23 09:33:27;;;;;;;6.35;4.90;;;12.40;50.10;;;;;;5368995;26;20019;-59
2024/04/23 09:36:09;;;;;;;5.65;4.50;;;12.70;49.90;;;;;;5365904;26;20011;-63
2024/04/23 09:38:39;;;;;;;5.63;4.68;;;12.80;49.10;;;;;;5353783;26;20001;-62
2024/04/23 09:41:07;;;;;;;5.22;4.50;;;12.80;48.70;;;;;;5355836;26;20323;-67
2024/04/23 09:43:33;;;;;;;5.55;4.60;;;12.70;48.90;;;;;;5367256;26;20044;-63
2024/04/23 09:46:00;;;;;;;5.30;4.80;;;12.70;48.90;;;;;;5361598;26;20028;-64
2024/04/23 09:48:34;;;;;;;6.57;4.38;;;12.70;48.80;;;;;;5361901;26;20043;-64
2024/04/23 09:51:07;;;;;;;5.25;4.57;;;12.70;48.90;;;;;;5372657;26;19996;-61
2024/04/23 09:53:33;;;;;;;6.15;4.40;;;12.60;48.90;;;;;;5376790;26;20026;-64
2024/04/23 09:56:04;;;;;;;5.38;4.28;;;12.50;49.00;;;;;;5369356;26;19993;-63
2024/04/23 09:58:30;;;;;;;5.05;4.22;;;12.60;49.20;;;;;;5373695;26;20003;-65
2024/04/23 10:00:57;;;;;;;4.75;4.10;;;12.50;48.60;;;;;;5367728;26;20015;-64
2024/04/23 10:03:24;;;;;;;5.63;4.03;;;12.40;48.60;;;;;;5362499;26;20008;-64
2024/04/23 10:05:51;;;;;;;4.28;3.88;;;12.40;48.60;;;;;;5377213;26;20078;-62
2024/04/23 10:08:43;;;;;;;5.07;4.25;;;12.30;48.70;;;;;;5367636;26;20077;-64
2024/04/23 10:11:10;;;;;;;;;;;12.40;48.90;;;;;;5378538;26;19996;-61
2024/04/23 10:13:44;;;;;;;5.35;3.92;;;12.40;49.30;;;;;;5381553;26;19926;-63
2024/04/23 10:16:34;;;;;;;5.68;4.60;;;12.50;49.40;;;;;;5374114;26;20026;-65
2024/04/23 10:19:02;;;;;;;4.80;4.30;;;12.40;48.70;;;;;;5376185;26;20004;-68
2024/04/23 10:21:36;;;;;;;6.55;5.18;;;12.50;49.00;;;;;;5371891;26;19997;-66
2024/04/23 10:24:07;;;;;;;6.32;4.32;;;12.70;48.80;;;;;;5368614;26;20010;-63
2024/04/23 10:26:37;;;;;;;;;;;12.80;48.90;;;;;;5368034;26;20016;-63
2024/04/23 10:29:03;;;;;;;5.50;4.78;;;13.00;49.10;;;;;;5373151;26;19978;-62
2024/04/23 10:31:31;;;;;;;5.93;4.68;;;13.10;48.60;;;;;;5374464;26;20342;-61
2024/04/23 10:33:57;;;;;;;5.55;4.80;;;13.10;48.60;;;;;;5372619;26;20000;-65
2024/04/23 10:36:24;;;;;;;5.22;4.70;;;13.20;48.60;;;;;;5377324;26;20015;-62
2024/04/23 10:38:50;;;;;;;5.32;4.70;;;13.30;48.60;;;;;;5381824;26;20014;-61
2024/04/23 10:41:18;;;;;;;4.85;4.35;;;13.40;48.50;;;;;;5387179;26;20012;-62
2024/04/23 10:43:45;;;;;;;6.10;4.72;;;13.30;48.20;;;;;;5361880;26;20005;-65
2024/04/23 10:46:11;;;;;;;5.97;4.85;;;13.40;48.00;;;;;;5366107;26;20076;-66
2024/04/23 10:48:37;;;;;;;5.78;4.60;;;13.30;47.90;;;;;;5362946;26;20008;-62
2024/04/23 10:51:04;;;;;;;6.03;4.90;;;13.30;48.00;;;;;;5375740;26;20008;-64
2024/04/23 10:53:34;;;;;;;7.22;5.32;;;13.30;47.90;;;;;;5381020;26;20508;-62
2024/04/23 10:55:59;;;;;;;5.80;4.40;;;13.40;47.60;;;;;;5369194;26;20334;-64
2024/04/23 10:58:25;;;;;;;5.20;4.35;;;13.50;47.70;;;;;;5370590;26;20005;-63
2024/04/23 11:01:01;;;;;;;5.10;4.60;;;13.80;47.50;;;;;;5369868;26;20019;-62
2024/04/23 11:03:29;;;;;;;5.05;4.50;;;14.00;46.60;;;;;;5363017;26;20004;-62
2024/04/23 11:05:55;;;;;;;5.47;4.20;;;14.20;46.00;;;;;;5365406;26;20388;-63
2024/04/23 11:08:28;;;;;;;5.13;4.50;;;14.50;46.00;;;;;;5369211;26;20023;-62
2024/04/23 11:11:04;;;;;;;6.28;4.78;;;14.80;45.30;;;;;;5372040;26;20016;-63
2024/04/23 11:13:37;;;;;;;4.55;4.10;;;14.60;44.30;;;;;;5365834;26;20005;-60
2024/04/23 11:16:16;;;;;;;5.85;4.72;;;14.70;44.40;;;;;;5377126;26;20382;-63
2024/04/23 11:18:43;;;;;;;5.10;4.35;;;14.70;44.00;;;;;;5361274;26;20082;-62
2024/04/23 11:21:09;;;;;;;5.78;4.10;;;14.70;43.90;;;;;;5368481;26;20522;-63
2024/04/23 11:23:39;;;;;;;5.40;4.53;;;14.70;43.80;;;;;;5380374;26;20005;-64
2024/04/23 11:26:08;;;;;;;6.50;4.45;;;14.70;43.70;;;;;;5375383;26;20000;-64
2024/04/23 11:28:36;;;;;;;4.82;4.00;;;14.80;43.50;;;;;;5371760;26;20000;-63
2024/04/23 11:31:02;;;;;;;4.88;3.60;;;14.80;43.30;;;;;;5370148;26;19997;-63
2024/04/23 11:33:28;;;;;;;5.60;4.38;;;14.70;43.00;;;;;;5361328;26;20015;-64
2024/04/23 11:35:54;;;;;;;5.00;4.50;;;14.70;43.10;;;;;;5358708;26;20018;-63
2024/04/23 11:38:19;;;;;;;5.38;4.10;;;14.70;43.10;;;;;;5370466;26;20004;-63
2024/04/23 11:40:48;;;;;;;6.10;4.88;;;14.60;43.70;;;;;;5368233;26;19997;-66
2024/04/23 11:43:16;;;;;;;4.85;4.35;;;14.50;43.60;;;;;;5353957;26;20121;-64
2024/04/23 11:45:42;;;;;;;7.60;4.70;;;14.20;43.90;;;;;;5370199;26;20017;-62
2024/04/23 11:48:08;;;;;;;6.97;4.97;;;14.00;44.10;;;;;;5367737;26;20350;-64
2024/04/23 11:50:33;;;;;;;5.40;4.20;;;14.00;44.70;;;;;;5372235;26;20028;-63
2024/04/23 11:53:00;;;;;;;5.15;4.65;;;14.20;44.70;;;;;;5383828;26;20019;-63
2024/04/23 11:55:26;;;;;;;7.00;4.35;;;14.30;43.60;;;;;;5373175;26;19993;-63
2024/04/23 11:57:53;;;;;;;5.13;4.55;;;14.30;43.80;;;;;;5372615;26;19996;-63
2024/04/23 12:00:20;;;;;;;7.15;4.72;;;14.20;43.60;;;;;;5357692;26;19999;-64
2024/04/23 12:02:47;;;;;;;7.40;4.78;;;14.20;43.20;;;;;;5358147;26;20009;-61
2024/04/23 12:05:14;;;;;;;5.50;4.82;;;14.00;43.50;;;;;;5363522;26;20455;-62
2024/04/23 12:07:40;;;;;;;5.50;4.00;;;13.80;43.70;;;;;;5370979;26;20015;-62
2024/04/23 12:10:08;;;;;;;5.35;4.07;;;13.70;44.00;;;;;;5369514;26;20013;-62
2024/04/23 12:12:35;;;;;;;5.30;4.50;;;13.90;44.20;;;;;;5372715;26;20001;-63
2024/04/23 12:15:02;;;;;;;4.80;4.30;;;14.20;43.90;;;;;;5374752;26;20000;-60
2024/04/23 12:17:27;;;;;;;7.43;4.60;;;14.30;43.20;;;;;;5365882;26;19996;-62
2024/04/23 12:19:55;;;;;;;6.63;4.03;;;14.50;42.90;;;;;;5364824;26;20073;-62
2024/04/23 12:22:20;;;;;;;4.80;4.13;;;14.70;42.50;;;;;;5372525;26;20000;-64
2024/04/23 12:24:46;;;;;;;5.20;3.92;;;14.70;42.60;;;;;;5363099;26;20378;-62
2024/04/23 12:27:12;;;;;;;4.93;3.95;;;14.80;42.90;;;;;;5365773;26;20495;-64
2024/04/23 12:29:38;;;;;;;5.35;3.92;;;15.00;42.80;;;;;;5360074;26;20028;-62
2024/04/23 12:32:04;;;;;;;4.90;3.83;;;15.20;42.60;;;;;;5376169;26;20018;-64
2024/04/23 12:34:30;;;;;;;4.43;3.60;;;15.40;42.30;;;;;;5371758;26;20001;-63
2024/04/23 12:36:56;;;;;;;4.07;3.65;;;15.50;41.80;;;;;;5380540;26;20011;-62
2024/04/23 12:39:22;;;;;;;4.78;3.80;;;15.40;41.40;;;;;;5365524;26;20115;-63
2024/04/23 12:41:48;;;;;;;4.10;3.08;;;15.30;41.40;;;;;;5365702;26;20008;-66
2024/04/23 12:44:15;;;;;;;4.35;3.85;;;15.20;41.30;;;;;;5370877;26;20697;-63
2024/04/23 12:46:41;;;;;;;5.57;3.80;;;15.20;41.40;;;;;;5370400;26;20711;-61
2024/04/23 12:49:07;;;;;;;4.90;3.90;;;14.90;41.60;;;;;;5368901;26;20044;-62
2024/04/23 12:51:32;;;;;;;4.93;4.03;;;14.80;42.10;;;;;;5371396;26;20004;-62
2024/04/23 12:53:58;;;;;;;4.10;3.58;;;14.60;42.20;;;;;;5369384;26;20001;-62
2024/04/23 12:56:23;;;;;;;5.55;3.75;;;14.80;42.50;;;;;;5368303;26;20011;-64